| time (UTC) | temp C | wind direction | speed KPH | gust KPH | rain 1hr cm | rain 24hr cm | rain mn cm | humidity % | barometer mb |
| 20260906163849 | 23 | 70 | 8.0 | 11.3 | 0.00 | 0.00 | 0.00 | 87 | 1017.9 |
| 20260906162351 | 23 | 91 | 4.8 | 11.3 | 0.00 | 0.00 | 0.00 | 87 | 1017.6 |
| 20260906160849 | 23 | 93 | 3.2 | 9.7 | 0.00 | 0.00 | 0.00 | 87 | 1017.9 |
| 20260906155350 | 23 | 90 | 4.8 | 9.7 | 0.00 | 0.00 | 0.00 | 84 | 1017.6 |
| 20260906153850 | 22 | 91 | 4.8 | 8.0 | 0.00 | 0.00 | 0.00 | 83 | 1017.9 |
| 20260906152349 | 23 | 23 | 4.8 | 9.7 | 0.00 | 0.00 | 0.00 | 83 | 1017.6 |
| 20260906150850 | 22 | 320 | 3.2 | 4.8 | 0.00 | 0.00 | 0.00 | 81 | 1017.3 |
| 20260906145350 | 22 | 330 | 9.7 | 12.9 | 0.00 | 0.00 | 0.00 | 83 | 1017.3 |
| 20260906143852 | 21 | 329 | 3.2 | 8.0 | 0.00 | 0.00 | 0.00 | 86 | 1017.3 |
| 20260906142350 | 20 | 317 | 3.2 | 9.7 | 0.00 | 0.00 | 0.00 | 89 | 1017.3 |
| 20260906140851 | 20 | 334 | 4.8 | 9.7 | 0.00 | 0.00 | 0.00 | 91 | 1017.2 |
| 20260906135350 | 18 | 314 | 11.3 | 12.9 | 0.00 | 0.00 | 0.00 | 92 | 1017.3 |
| 20260906133849 | 18 | 334 | 8.0 | 11.3 | 0.00 | 0.00 | 0.00 | 93 | 1017.3 |
| 20260906132350 | 17 | 323 | 8.0 | 11.3 | 0.00 | 0.00 | 0.00 | 95 | 1017.3 |
| 20260906130849 | 17 | 323 | 9.7 | 12.9 | 0.00 | 0.00 | 0.00 | 96 | 1017.3 |
| 20260906125353 | 16 | 326 | 11.3 | 11.3 | 0.00 | 0.00 | 0.00 | 97 | 1016.9 |
| 20260906123850 | 16 | 335 | 12.9 | 16.1 | 0.00 | 0.00 | 0.00 | 98 | 1016.9 |
| 20260906122350 | 15 | 322 | 8.0 | 11.3 | 0.00 | 0.00 | 0.00 | 98 | 1016.9 |
| 20260906120849 | 15 | 327 | 8.0 | 11.3 | 0.00 | 0.00 | 0.00 | 99 | 1016.6 |
| 20260906115350 | 14 | 318 | 4.8 | 9.7 | 0.00 | 0.00 | 0.00 | 99 | 1016.6 |
| 20260906113849 | 14 | 318 | 8.0 | 9.7 | 0.00 | 0.00 | 0.00 | 99 | 1016.3 |
| 20260906112351 | 13 | 324 | 8.0 | 11.3 | 0.00 | 0.00 | 0.00 | 99 | 1015.6 |
| 20260906110850 | 13 | 324 | 4.8 | 11.3 | 0.00 | 0.00 | 0.00 | 99 | 1015.9 |
| 20260906105349 | 13 | 331 | 9.7 | 11.3 | 0.00 | 0.00 | 0.00 | 99 | 1015.9 |
| 20260906103849 | 13 | 328 | 9.7 | 11.3 | 0.00 | 0.00 | 0.00 | 99 | 1015.6 |
| 20260906102350 | 13 | 334 | 8.0 | 11.3 | 0.00 | 0.00 | 0.00 | 99 | 1015.6 |
| 20260906100850 | 13 | 339 | 8.0 | 11.3 | 0.00 | 0.00 | 0.00 | 99 | 1015.6 |
| 20260906095351 | 13 | 341 | 9.7 | 11.3 | 0.00 | 0.00 | 0.00 | 99 | 1015.6 |
| 20260906093850 | 13 | 335 | 8.0 | 11.3 | 0.00 | 0.00 | 0.00 | 99 | 1015.6 |
| 20260906092349 | 13 | 336 | 9.7 | 11.3 | 0.00 | 0.00 | 0.00 | 99 | 1015.6 |
| 20260906090850 | 13 | 336 | 8.0 | 11.3 | 0.00 | 0.00 | 0.00 | 99 | 1015.6 |
| 20260906085350 | 13 | 333 | 9.7 | 11.3 | 0.00 | 0.00 | 0.00 | 99 | 1015.2 |
| 20260906083850 | 13 | 331 | 8.0 | 8.0 | 0.00 | 0.00 | 0.00 | 99 | 1015.2 |
| 20260906082350 | 14 | 326 | 3.2 | 4.8 | 0.00 | 0.00 | 0.00 | 99 | 1014.9 |
| 20260906080850 | 14 | 329 | 4.8 | 4.8 | 0.00 | 0.00 | 0.00 | 99 | 1014.9 |
| 20260906075350 | 15 | 330 | 4.8 | 4.8 | 0.00 | 0.00 | 0.00 | 99 | 1014.9 |
| 20260906073849 | 14 | 336 | 1.6 | 1.6 | 0.00 | 0.00 | 0.00 | 99 | 1014.9 |
| 20260906072350 | 15 | 310 | 3.2 | 3.2 | 0.00 | 0.00 | 0.00 | 99 | 1014.6 |
| 20260906070850 | 15 | 335 | 9.7 | 12.9 | 0.00 | 0.00 | 0.00 | 98 | 1014.6 |
| 20260906065351 | 15 | 338 | 4.8 | 8.0 | 0.00 | 0.00 | 0.00 | 97 | 1014.6 |
| 20260906063851 | 15 | 301 | 3.2 | 4.8 | 0.00 | 0.00 | 0.00 | 98 | 1014.9 |
| 20260906062349 | 15 | 323 | 4.8 | 8.0 | 0.00 | 0.00 | 0.00 | 99 | 1014.6 |
| 20260906060849 | 15 | 330 | 9.7 | 11.3 | 0.00 | 0.00 | 0.00 | 98 | 1014.2 |
| 20260906055351 | 15 | 336 | 8.0 | 9.7 | 0.00 | 0.00 | 0.00 | 99 | 1014.6 |
| 20260906053851 | 15 | 344 | 9.7 | 11.3 | 0.00 | 0.00 | 0.00 | 98 | 1014.6 |
| 20260906052349 | 15 | 337 | 11.3 | 12.9 | 0.00 | 0.00 | 0.00 | 98 | 1014.3 |
| 20260906050849 | 15 | 331 | 12.9 | 14.5 | 0.00 | 0.00 | 0.00 | 97 | 1014.4 |
| 20260906045350 | 15 | 342 | 11.3 | 14.5 | 0.00 | 0.00 | 0.00 | 97 | 1014.6 |
| 20260906043849 | 15 | 336 | 11.3 | 14.5 | 0.00 | 0.00 | 0.00 | 96 | 1014.6 |
| 20260906042351 | 15 | 333 | 11.3 | 14.5 | 0.00 | 0.00 | 0.00 | 96 | 1014.6 |
| 20260906040849 | 16 | 327 | 12.9 | 12.9 | 0.00 | 0.00 | 0.00 | 95 | 1014.6 |
| 20260906035349 | 16 | 330 | 11.3 | 14.5 | 0.00 | 0.00 | 0.00 | 94 | 1014.6 |
| 20260906033849 | 16 | 334 | 9.7 | 12.9 | 0.00 | 0.00 | 0.00 | 93 | 1014.6 |
| 20260906032351 | 16 | 335 | 11.3 | 12.9 | 0.00 | 0.00 | 0.00 | 92 | 1014.6 |
| 20260906030850 | 16 | 328 | 11.3 | 14.5 | 0.00 | 0.00 | 0.00 | 91 | 1014.6 |
| 20260906025350 | 16 | 333 | 11.3 | 12.9 | 0.00 | 0.00 | 0.00 | 90 | 1014.6 |
| 20260906023849 | 17 | 335 | 11.3 | 12.9 | 0.00 | 0.00 | 0.00 | 89 | 1014.2 |
| 20260906022349 | 17 | 340 | 11.3 | 14.5 | 0.00 | 0.00 | 0.00 | 89 | 1014.6 |
| 20260906020850 | 17 | 338 | 9.7 | 14.5 | 0.00 | 0.00 | 0.00 | 88 | 1014.6 |
| 20260906015351 | 17 | 327 | 9.7 | 14.5 | 0.00 | 0.00 | 0.00 | 87 | 1014.6 |
| 20260906013848 | 18 | 337 | 11.3 | 16.1 | 0.00 | 0.00 | 0.00 | 84 | 1014.2 |
| 20260906012349 | 18 | 339 | 9.7 | 11.3 | 0.00 | 0.00 | 0.00 | 85 | 1014.2 |
| 20260906010849 | 18 | 342 | 11.3 | 12.9 | 0.00 | 0.00 | 0.00 | 82 | 1013.9 |
| 20260906005349 | 18 | 332 | 9.7 | 19.3 | 0.00 | 0.00 | 0.00 | 80 | 1013.9 |
| 20260906003849 | 19 | 341 | 8.0 | 11.3 | 0.00 | 0.00 | 0.00 | 80 | 1013.9 |
| 20260906002351 | 20 | 325 | 8.0 | 12.9 | 0.00 | 0.00 | 0.00 | 80 | 1013.8 |
| 20260906000849 | 20 | 314 | 8.0 | 9.7 | 0.00 | 0.00 | 0.00 | 79 | 1013.9 |
| 20260905235349 | 21 | 331 | 4.8 | 8.0 | 0.00 | 0.00 | 0.00 | 80 | 1013.5 |
| 20260905233849 | 21 | 332 | 9.7 | 14.5 | 0.00 | 0.00 | 0.00 | 76 | 1013.5 |
| 20260905232350 | 22 | 329 | 4.8 | 8.0 | 0.00 | 0.00 | 0.00 | 78 | 1013.5 |
| 20260905230850 | 22 | 33 | 1.6 | 3.2 | 0.00 | 0.00 | 0.00 | 84 | 1013.5 |
| 20260905225351 | 21 | 91 | 1.6 | 3.2 | 0.00 | 0.00 | 0.00 | 82 | 1013.2 |
| 20260905223849 | 22 | 99 | 3.2 | 9.7 | 0.00 | 0.00 | 0.00 | 82 | 1012.9 |
| 20260905222349 | 22 | 67 | 3.2 | 8.0 | 0.00 | 0.00 | 0.00 | 80 | 1013.2 |
| 20260905220849 | 22 | 80 | 3.2 | 9.7 | 0.00 | 0.00 | 0.00 | 81 | 1012.9 |
| 20260905215349 | 22 | 94 | 9.7 | 12.9 | 0.00 | 0.00 | 0.00 | 78 | 1012.9 |
| 20260905213849 | 23 | 96 | 8.0 | 11.3 | 0.00 | 0.00 | 0.00 | 76 | 1012.9 |
| 20260905212351 | 23 | 71 | 4.8 | 9.7 | 0.00 | 0.00 | 0.00 | 78 | 1013.2 |
| 20260905210850 | 23 | 42 | 8.0 | 11.3 | 0.00 | 0.00 | 0.00 | 78 | 1012.9 |
| 20260905205349 | 23 | 98 | 3.2 | 12.9 | 0.00 | 0.00 | 0.00 | 78 | 1012.9 |
| 20260905203849 | 23 | 96 | 4.8 | 12.9 | 0.00 | 0.00 | 0.00 | 81 | 1013.2 |
| 20260905202352 | 23 | 53 | 4.8 | 11.3 | 0.00 | 0.00 | 0.00 | 80 | 1013.0 |
| 20260905200850 | 23 | 78 | 3.2 | 14.5 | 0.00 | 0.00 | 0.00 | 81 | 1013.1 |
| 20260905195349 | 23 | 72 | 4.8 | 12.9 | 0.00 | 0.00 | 0.00 | 80 | 1013.2 |
| 20260905193848 | 23 | 102 | 3.2 | 11.3 | 0.00 | 0.00 | 0.00 | 82 | 1013.2 |
| 20260905192349 | 23 | 54 | 9.7 | 11.3 | 0.00 | 0.00 | 0.00 | 80 | 1013.2 |
| 20260905190850 | 23 | 88 | 8.0 | 12.9 | 0.00 | 0.00 | 0.00 | 81 | 1013.2 |
| 20260905185351 | 23 | 73 | 4.8 | 12.9 | 0.00 | 0.00 | 0.00 | 84 | 1013.5 |
| 20260905183850 | 23 | 53 | 9.7 | 11.3 | 0.00 | 0.00 | 0.00 | 82 | 1013.5 |
| 20260905182357 | 23 | 82 | 8.0 | 12.9 | 0.00 | 0.00 | 0.00 | 80 | 1013.5 |
| 20260905180856 | 23 | 82 | 4.8 | 11.3 | 0.00 | 0.00 | 0.00 | 82 | 1013.5 |
| 20260905175349 | 23 | 85 | 9.7 | 19.3 | 0.00 | 0.00 | 0.00 | 83 | 1013.9 |
| 20260905173849 | 23 | 62 | 8.0 | 12.9 | 0.00 | 0.00 | 0.00 | 81 | 1013.5 |
| 20260905172351 | 23 | 64 | 9.7 | 12.9 | 0.00 | 0.00 | 0.00 | 83 | 1013.9 |
| 20260905170849 | 23 | 51 | 11.3 | 12.9 | 0.00 | 0.00 | 0.00 | 83 | 1013.9 |
| 20260905165350 | 23 | 67 | 11.3 | 14.5 | 0.00 | 0.00 | 0.00 | 84 | 1013.5 |